Southport, North Carolina
Current Conditions -  °F | °C
As of 2:15 PM on Friday 28 Nov 2014 (Local Time) from KSUT Reporting Station
Clear Clear  
Wind Chill: 45°   Ceiling: Unl
Heat Index: 45°   Visibility: 10mi
Dew Point: 21°   Wind: 0mph
Humidity: 39%   Direction: NA
Pressure: 30.29"   Gusts: NA
Location:  33.92°N, 78.02°W
Report Text: KSUT 281915Z AUTO 00000KT 10SM CLR 07/M06 A3029 RMK AO2 T00701063
Loading
Personal Weather Stations






























Interactive Weather Map New forecast layout! Learn more

10-Day Weather Forecast

Advertisements
Track Severe Weather on mobile